createdAt,value
2018-05-27T00:01:46.228Z,23.53
2018-05-27T00:04:14.368Z,21.73
2018-05-27T00:06:42.051Z,24.80
2018-05-27T00:09:09.745Z,23.43
2018-05-27T00:11:37.570Z,23.30
2018-05-27T00:14:05.257Z,22.93
2018-05-27T00:16:32.912Z,25.23
2018-05-27T00:19:01.059Z,23.63
2018-05-27T00:21:28.666Z,22.37
2018-05-27T00:23:56.265Z,22.20
2018-05-27T00:26:23.998Z,24.13
2018-05-27T00:28:51.605Z,26.17
2018-05-27T00:31:19.271Z,20.97
2018-05-27T00:33:46.937Z,25.10
2018-05-27T00:36:14.603Z,23.67
2018-05-27T00:38:42.231Z,22.57
2018-05-27T00:41:09.958Z,19.37
2018-05-27T00:43:37.539Z,19.27
2018-05-27T00:46:05.262Z,19.90
2018-05-27T00:48:33.154Z,23.00
2018-05-27T00:51:00.745Z,23.23
2018-05-27T00:53:40.201Z,19.67
2018-05-27T00:56:07.928Z,21.23
2018-05-27T00:58:35.591Z,21.37
2018-05-27T01:01:03.432Z,22.13
2018-05-27T01:03:31.084Z,20.53
2018-05-27T01:05:58.798Z,22.87
2018-05-27T01:08:26.939Z,19.73
2018-05-27T01:10:54.545Z,20.40
2018-05-27T01:13:22.176Z,21.53
2018-05-27T01:15:49.878Z,21.43
2018-05-27T01:18:17.508Z,20.37
2018-05-27T01:20:45.127Z,18.80
2018-05-27T01:23:12.844Z,19.97
2018-05-27T01:25:40.447Z,19.10
2018-05-27T01:28:08.130Z,18.70
2018-05-27T01:30:36.261Z,23.70
2018-05-27T01:33:03.842Z,17.73
2018-05-27T01:35:31.494Z,17.23
2018-05-27T01:37:59.371Z,16.40
2018-05-27T01:40:27.019Z,17.47
2018-05-27T01:42:54.729Z,16.57
2018-05-27T01:45:22.372Z,19.47
2018-05-27T01:47:50.022Z,16.80
2018-05-27T01:50:18.696Z,17.30
2018-05-27T01:52:46.398Z,15.83
2018-05-27T01:55:13.997Z,22.10
2018-05-27T01:57:41.634Z,21.73
2018-05-27T02:00:09.541Z,18.17
2018-05-27T02:02:37.190Z,20.37
2018-05-27T02:05:04.851Z,19.17
2018-05-27T02:07:32.715Z,22.10
2018-05-27T02:10:00.325Z,15.70
2018-05-27T02:12:28.035Z,15.20
2018-05-27T02:14:55.714Z,15.43
2018-05-27T02:17:23.334Z,15.50
2018-05-27T02:19:51.006Z,16.63
2018-05-27T02:22:18.665Z,16.97
2018-05-27T02:24:46.309Z,14.80
2018-05-27T02:27:13.955Z,13.87
2018-05-27T02:29:41.662Z,15.43
2018-05-27T02:32:09.282Z,15.30
2018-05-27T02:34:36.953Z,14.93
2018-05-27T02:37:04.651Z,16.67
2018-05-27T02:39:32.277Z,17.47
2018-05-27T02:41:59.907Z,19.30
2018-05-27T02:44:27.813Z,17.43
2018-05-27T02:46:55.430Z,19.63
2018-05-27T02:49:23.108Z,18.53
2018-05-27T02:51:50.949Z,19.70
2018-05-27T02:54:18.615Z,16.17
2018-05-27T02:56:46.305Z,18.20
2018-05-27T02:59:14.128Z,14.40
2018-05-27T03:01:41.861Z,17.57
2018-05-27T03:04:10.281Z,17.77
2018-05-27T03:06:38.312Z,17.90
2018-05-27T03:09:06.066Z,14.43
2018-05-27T03:11:33.667Z,15.73
2018-05-27T03:14:01.374Z,19.13
2018-05-27T03:16:28.985Z,16.33
2018-05-27T03:18:57.671Z,23.90
2018-05-27T03:21:25.832Z,17.87
2018-05-27T03:23:53.401Z,18.03
2018-05-27T03:26:21.054Z,18.67
2018-05-27T03:28:48.928Z,18.73
2018-05-27T03:31:16.621Z,19.73
2018-05-27T03:33:44.286Z,18.10
2018-05-27T03:36:12.487Z,21.30
2018-05-27T03:38:40.185Z,17.20
2018-05-27T03:41:08.863Z,18.70
2018-05-27T03:43:36.542Z,19.00
2018-05-27T03:46:04.173Z,18.00
2018-05-27T03:48:31.834Z,13.83
2018-05-27T03:50:59.545Z,17.47
2018-05-27T03:53:27.176Z,22.37
2018-05-27T03:55:54.825Z,21.17
2018-05-27T03:58:23.548Z,28.30
2018-05-27T04:00:51.245Z,45.17
2018-05-27T04:03:18.911Z,20.40
2018-05-27T04:05:58.191Z,17.57
2018-05-27T04:08:32.589Z,18.50
2018-05-27T04:11:00.371Z,18.63
2018-05-27T04:13:28.151Z,18.63
2018-05-27T04:15:55.809Z,19.20
2018-05-27T04:18:23.466Z,17.70
2018-05-27T04:20:51.122Z,18.57
2018-05-27T04:23:18.692Z,17.47
2018-05-27T04:25:46.563Z,20.33
2018-05-27T04:28:14.275Z,20.73
2018-05-27T04:30:41.904Z,21.73
2018-05-27T04:33:10.091Z,18.47
2018-05-27T04:35:37.667Z,17.50
2018-05-27T04:38:05.342Z,15.83
2018-05-27T04:40:33.168Z,17.17
2018-05-27T04:43:00.838Z,19.97
2018-05-27T04:45:28.467Z,15.53
2018-05-27T04:47:56.173Z,20.83
2018-05-27T04:50:23.818Z,29.43
2018-05-27T04:52:51.471Z,25.77
2018-05-27T04:55:19.187Z,31.50
2018-05-27T04:57:46.772Z,18.43
2018-05-27T05:00:14.397Z,21.80
2018-05-27T05:02:42.612Z,23.87
2018-05-27T05:05:10.204Z,21.65
2018-05-27T05:07:37.820Z,18.55
2018-05-27T05:10:05.702Z,23.38
2018-05-27T05:12:33.334Z,17.80
2018-05-27T05:15:00.962Z,17.30
2018-05-27T05:17:28.606Z,18.00
2018-05-27T05:19:56.211Z,12.77
2018-05-27T05:22:24.451Z,17.92
2018-05-27T05:24:52.217Z,19.02
2018-05-27T05:27:20.216Z,10.02
2018-05-27T05:29:47.796Z,16.33
2018-05-27T05:32:16.012Z,12.25
2018-05-27T05:34:43.743Z,18.12
2018-05-27T05:37:11.338Z,14.23
2018-05-27T05:39:38.980Z,14.23
2018-05-27T05:42:06.613Z,13.00
2018-05-27T05:44:34.346Z,15.68
2018-05-27T05:47:08.974Z,12.35
2018-05-27T05:49:36.631Z,14.43
2018-05-27T05:52:09.206Z,13.43
2018-05-27T05:54:38.252Z,11.02
2018-05-27T05:57:06.012Z,12.40
2018-05-27T05:59:33.638Z,13.70
2018-05-27T06:02:01.288Z,18.35
2018-05-27T06:04:29.271Z,16.83
2018-05-27T06:06:56.946Z,14.07
2018-05-27T06:09:24.688Z,15.13
2018-05-27T06:11:52.262Z,14.98
2018-05-27T06:14:19.937Z,14.25
2018-05-27T06:16:48.092Z,15.32
2018-05-27T06:19:15.662Z,14.55
2018-05-27T06:21:43.314Z,14.68
2018-05-27T06:24:11.472Z,10.90
2018-05-27T06:26:39.068Z,9.32
2018-05-27T06:29:06.696Z,10.70
2018-05-27T06:31:34.556Z,12.73
2018-05-27T06:34:02.194Z,9.18
2018-05-27T06:36:29.833Z,10.77
2018-05-27T06:38:57.696Z,10.07
2018-05-27T06:41:25.682Z,21.40
2018-05-27T06:43:53.423Z,12.07
2018-05-27T06:46:21.191Z,8.60
2018-05-27T06:48:48.893Z,9.18
2018-05-27T06:51:16.653Z,6.85
2018-05-27T06:53:44.351Z,8.20
2018-05-27T06:56:11.897Z,10.13
2018-05-27T06:58:39.546Z,11.35
2018-05-27T07:01:07.668Z,9.23
2018-05-27T07:03:35.253Z,7.43
2018-05-27T07:06:02.957Z,9.77
2018-05-27T07:08:31.017Z,9.40
2018-05-27T07:10:58.720Z,12.05
2018-05-27T07:13:26.379Z,8.63
2018-05-27T07:15:54.200Z,12.77
2018-05-27T07:18:21.852Z,8.45
2018-05-27T07:20:49.541Z,19.42
2018-05-27T07:23:17.384Z,8.15
2018-05-27T07:25:45.205Z,10.50
2018-05-27T07:28:12.945Z,10.57
2018-05-27T07:30:40.769Z,12.37
2018-05-27T07:33:08.411Z,13.57
2018-05-27T07:35:36.084Z,14.75
2018-05-27T07:38:03.822Z,7.87
2018-05-27T07:40:31.508Z,10.30
2018-05-27T07:42:59.092Z,11.00
2018-05-27T07:45:26.974Z,10.45
2018-05-27T07:47:54.619Z,12.20
2018-05-27T07:50:22.248Z,9.95
2018-05-27T07:52:50.641Z,8.68
2018-05-27T07:55:18.219Z,8.73
2018-05-27T07:57:45.837Z,11.55
2018-05-27T08:00:13.582Z,9.50
2018-05-27T08:02:41.174Z,11.88
2018-05-27T08:05:08.805Z,10.23
2018-05-27T08:07:36.533Z,14.77
2018-05-27T08:10:04.267Z,13.85
2018-05-27T08:12:31.825Z,11.82
2018-05-27T08:14:59.623Z,8.73
2018-05-27T08:17:27.301Z,9.13
2018-05-27T08:19:54.981Z,8.82
2018-05-27T08:22:22.812Z,9.85
2018-05-27T08:24:50.499Z,10.40
2018-05-27T08:27:18.154Z,9.20
2018-05-27T08:29:46.002Z,8.88
2018-05-27T08:32:13.705Z,10.45
2018-05-27T08:34:41.345Z,10.68
2018-05-27T08:37:09.059Z,8.65
2018-05-27T08:39:36.664Z,7.43
2018-05-27T08:42:04.318Z,8.13
2018-05-27T08:44:32.320Z,7.85
2018-05-27T08:46:59.877Z,7.70
2018-05-27T08:49:27.497Z,8.82
2018-05-27T08:51:55.696Z,10.75
2018-05-27T08:54:23.266Z,13.05
2018-05-27T08:56:50.906Z,11.07
2018-05-27T08:59:18.587Z,8.98
2018-05-27T09:01:46.208Z,11.35
2018-05-27T09:04:13.897Z,12.23
2018-05-27T09:06:41.595Z,8.27
2018-05-27T09:09:09.176Z,9.60
2018-05-27T09:11:36.855Z,8.80
2018-05-27T09:14:04.536Z,11.52
2018-05-27T09:16:32.167Z,11.55
2018-05-27T09:18:59.795Z,8.23
2018-05-27T09:21:27.657Z,9.43
2018-05-27T09:23:55.330Z,13.32
2018-05-27T09:26:23.006Z,8.77
2018-05-27T09:28:50.827Z,8.68
2018-05-27T09:31:18.516Z,11.52
2018-05-27T09:33:46.156Z,12.30
2018-05-27T09:36:13.885Z,10.02
2018-05-27T09:38:41.515Z,9.80
2018-05-27T09:41:09.164Z,7.53
2018-05-27T09:43:37.041Z,7.25
2018-05-27T09:46:04.689Z,11.38
2018-05-27T09:48:32.334Z,11.90
2018-05-27T09:51:00.318Z,11.52
2018-05-27T09:53:27.898Z,11.30
2018-05-27T09:55:55.557Z,6.30
2018-05-27T09:58:23.642Z,9.40
2018-05-27T10:00:51.292Z,11.65
2018-05-27T10:03:18.884Z,7.90
2018-05-27T10:05:46.747Z,11.93
2018-05-27T10:08:14.483Z,10.73
2018-05-27T10:10:42.107Z,9.60
2018-05-27T10:13:09.831Z,8.10
2018-05-27T10:15:37.419Z,11.30
2018-05-27T10:18:05.020Z,9.80
2018-05-27T10:20:32.970Z,10.05
2018-05-27T10:23:00.604Z,10.02
2018-05-27T10:25:28.291Z,9.30
2018-05-27T10:27:55.959Z,8.98
2018-05-27T10:30:23.603Z,6.93
2018-05-27T10:32:51.267Z,7.40
2018-05-27T10:35:18.961Z,7.87
2018-05-27T10:37:46.593Z,5.47
2018-05-27T10:40:14.200Z,7.40
2018-05-27T10:42:42.061Z,10.10
2018-05-27T10:45:09.738Z,8.50
2018-05-27T10:47:37.419Z,10.00
2018-05-27T10:50:05.089Z,10.27
2018-05-27T10:52:32.732Z,8.02
2018-05-27T10:55:00.348Z,8.63
2018-05-27T10:57:28.084Z,6.57
2018-05-27T10:59:55.724Z,8.63
2018-05-27T11:02:23.344Z,7.68
2018-05-27T11:04:51.032Z,8.18
2018-05-27T11:07:18.651Z,6.00
2018-05-27T11:09:46.338Z,13.50
2018-05-27T11:12:14.238Z,8.40
2018-05-27T11:14:41.901Z,10.52
2018-05-27T11:17:09.524Z,8.30
2018-05-27T11:19:37.285Z,10.65
2018-05-27T11:22:04.881Z,9.57
2018-05-27T11:24:32.506Z,8.00
2018-05-27T11:27:00.178Z,6.10
2018-05-27T11:29:27.796Z,6.32
2018-05-27T11:31:55.464Z,7.90
2018-05-27T11:34:23.184Z,11.10
2018-05-27T11:36:50.804Z,6.87
2018-05-27T11:39:18.438Z,9.63
2018-05-27T11:41:46.166Z,6.72
2018-05-27T11:44:13.797Z,7.97
2018-05-27T11:46:41.390Z,7.93
2018-05-27T11:49:09.279Z,13.02
2018-05-27T11:51:36.967Z,10.38
2018-05-27T11:54:04.630Z,8.15
2018-05-27T11:56:32.280Z,7.25
2018-05-27T11:58:59.918Z,6.37
2018-05-27T12:01:27.576Z,15.32
2018-05-27T12:03:55.263Z,9.30
2018-05-27T12:06:22.919Z,10.95
2018-05-27T12:08:50.560Z,12.05
2018-05-27T12:11:18.721Z,10.88
2018-05-27T12:13:46.306Z,14.82
2018-05-27T12:16:13.965Z,10.10
2018-05-27T12:18:42.067Z,13.07
2018-05-27T12:21:09.649Z,6.93
2018-05-27T12:23:37.356Z,11.57
2018-05-27T12:26:05.050Z,7.78
2018-05-27T12:28:32.669Z,9.30
2018-05-27T12:31:00.326Z,8.65
2018-05-27T12:33:27.999Z,11.02
2018-05-27T12:35:55.617Z,9.27
2018-05-27T12:38:23.479Z,10.98
2018-05-27T12:40:51.184Z,9.30
2018-05-27T12:43:18.839Z,9.65
2018-05-27T12:45:46.464Z,10.02
2018-05-27T12:48:14.308Z,8.25
2018-05-27T12:50:41.993Z,6.32
2018-05-27T12:53:09.656Z,17.85
2018-05-27T12:55:37.355Z,6.90
2018-05-27T12:58:04.968Z,8.40
2018-05-27T13:00:32.625Z,8.38
2018-05-27T13:03:00.825Z,6.55
2018-05-27T13:05:28.419Z,12.13
2018-05-27T13:07:56.039Z,12.68
2018-05-27T13:10:24.056Z,9.80
2018-05-27T13:12:51.734Z,9.00
2018-05-27T13:15:19.395Z,12.60
2018-05-27T13:17:47.175Z,8.45
2018-05-27T13:20:14.776Z,9.40
2018-05-27T13:22:42.369Z,10.15
2018-05-27T13:25:10.071Z,9.93
2018-05-27T13:27:37.683Z,8.23
2018-05-27T13:30:05.418Z,15.10
2018-05-27T13:32:33.051Z,7.95
2018-05-27T13:35:00.656Z,10.70
2018-05-27T13:37:28.331Z,12.70
2018-05-27T13:39:56.177Z,11.98
2018-05-27T13:42:23.860Z,16.10
2018-05-27T13:44:51.515Z,12.63
2018-05-27T13:47:19.207Z,8.88
2018-05-27T13:49:46.843Z,11.20
2018-05-27T13:52:14.501Z,6.50
2018-05-27T13:54:42.347Z,8.43
2018-05-27T13:57:10.038Z,9.38
2018-05-27T13:59:37.702Z,10.13
2018-05-27T14:02:05.387Z,10.10
2018-05-27T14:04:33.008Z,7.75
2018-05-27T14:07:00.744Z,8.05
2018-05-27T14:09:28.775Z,13.18
2018-05-27T14:11:56.403Z,10.07
2018-05-27T14:14:24.027Z,11.23
2018-05-27T14:16:51.852Z,10.27
2018-05-27T14:19:19.529Z,7.57
2018-05-27T14:21:47.281Z,7.20
2018-05-27T14:24:15.114Z,5.75
2018-05-27T14:26:42.761Z,8.98
2018-05-27T14:29:10.400Z,10.85
2018-05-27T14:31:38.285Z,7.85
2018-05-27T14:34:05.938Z,8.68
2018-05-27T14:36:33.601Z,10.20
2018-05-27T14:39:01.801Z,13.68
2018-05-27T14:41:29.528Z,14.50
2018-05-27T14:43:57.206Z,10.45
2018-05-27T14:46:24.894Z,9.05
2018-05-27T14:48:52.493Z,13.13
2018-05-27T14:51:20.184Z,8.75
2018-05-27T14:53:48.321Z,7.82
2018-05-27T14:56:15.893Z,14.55
2018-05-27T14:58:43.581Z,10.52
2018-05-27T15:01:11.537Z,10.05
2018-05-27T15:03:39.167Z,9.25
2018-05-27T15:06:06.745Z,10.38
2018-05-27T15:08:34.598Z,10.23
2018-05-27T15:11:02.231Z,7.78
2018-05-27T15:13:29.910Z,9.88
2018-05-27T15:15:57.975Z,10.23
2018-05-27T15:18:25.683Z,9.70
2018-05-27T15:20:53.857Z,8.77
2018-05-27T15:23:21.759Z,10.35
2018-05-27T15:25:49.413Z,8.88
2018-05-27T15:28:17.161Z,6.80
2018-05-27T15:30:45.253Z,15.13
2018-05-27T15:33:13.897Z,12.37
2018-05-27T15:35:41.500Z,9.02
2018-05-27T15:38:09.213Z,7.05
2018-05-27T15:40:36.838Z,6.68
2018-05-27T15:43:04.509Z,6.82
2018-05-27T15:45:32.324Z,13.40
2018-05-27T15:47:59.979Z,9.30
2018-05-27T15:50:27.645Z,8.32
2018-05-27T15:52:55.360Z,10.65
2018-05-27T15:55:24.018Z,8.75
2018-05-27T15:57:51.660Z,6.95
2018-05-27T16:00:19.509Z,14.32
2018-05-27T16:02:47.184Z,11.52
2018-05-27T16:05:14.860Z,12.45
2018-05-27T16:07:42.728Z,9.25
2018-05-27T16:10:10.359Z,11.75
2018-05-27T16:12:38.029Z,10.60
2018-05-27T16:15:06.248Z,15.40
2018-05-27T16:17:33.849Z,12.00
2018-05-27T16:20:01.448Z,13.52
2018-05-27T16:22:29.100Z,19.37
2018-05-27T16:24:56.768Z,12.48
2018-05-27T16:27:24.409Z,12.37
2018-05-27T16:29:52.038Z,15.20
2018-05-27T16:32:19.639Z,11.43
2018-05-27T16:34:47.380Z,12.68
2018-05-27T16:37:15.550Z,17.92
2018-05-27T16:39:43.123Z,14.98
2018-05-27T16:42:10.748Z,10.95
2018-05-27T16:44:38.459Z,15.38
2018-05-27T16:47:06.131Z,12.65
2018-05-27T16:49:33.720Z,14.90
2018-05-27T16:52:01.896Z,16.15
2018-05-27T16:54:29.500Z,12.07
2018-05-27T16:56:57.107Z,14.57
2018-05-27T16:59:24.961Z,15.93
2018-05-27T17:01:52.632Z,15.25
2018-05-27T17:04:20.312Z,13.57
2018-05-27T17:06:47.969Z,15.82
2018-05-27T17:09:15.649Z,13.93
2018-05-27T17:11:43.271Z,16.40
2018-05-27T17:14:10.991Z,25.37
2018-05-27T17:16:38.637Z,24.45
2018-05-27T17:19:06.276Z,25.05
2018-05-27T17:21:33.983Z,18.15
2018-05-27T17:24:01.670Z,20.58
2018-05-27T17:26:29.317Z,23.02
2018-05-27T17:28:57.058Z,17.83
2018-05-27T17:31:24.899Z,12.00
2018-05-27T17:33:52.612Z,14.38
2018-05-27T17:36:22.521Z,13.50
2018-05-27T17:38:51.165Z,10.57
2018-05-27T17:41:18.804Z,11.48
2018-05-27T17:43:46.985Z,16.95
2018-05-27T17:46:14.571Z,12.75
2018-05-27T17:48:42.212Z,18.67
2018-05-27T17:51:10.080Z,13.43
2018-05-27T17:53:37.716Z,16.25
2018-05-27T17:56:05.414Z,12.75
2018-05-27T17:58:33.298Z,15.82
2018-05-27T18:01:00.892Z,13.27
2018-05-27T18:03:28.588Z,14.68
2018-05-27T18:05:56.417Z,12.43
2018-05-27T18:08:24.125Z,16.62
2018-05-27T18:10:51.757Z,12.68
2018-05-27T18:13:19.906Z,15.73
2018-05-27T18:15:47.501Z,11.85
2018-05-27T18:18:15.134Z,17.07
2018-05-27T18:20:42.840Z,14.95
2018-05-27T18:23:10.440Z,14.63
2018-05-27T18:25:38.125Z,11.90
2018-05-27T18:28:06.284Z,11.07
2018-05-27T18:30:33.861Z,19.17
2018-05-27T18:33:01.602Z,17.42
2018-05-27T18:35:29.245Z,12.47
2018-05-27T18:37:56.808Z,13.18
2018-05-27T18:40:24.507Z,10.93
2018-05-27T18:42:52.199Z,16.48
2018-05-27T18:45:19.813Z,14.87
2018-05-27T18:47:47.449Z,12.00
2018-05-27T18:50:15.132Z,14.87
2018-05-27T18:52:42.798Z,14.57
2018-05-27T18:55:10.453Z,13.77
2018-05-27T18:57:38.620Z,14.53
2018-05-27T19:00:06.204Z,14.75
2018-05-27T19:02:33.858Z,15.77
2018-05-27T19:05:01.672Z,13.03
2018-05-27T19:07:29.360Z,14.30
2018-05-27T19:09:57.073Z,12.93
2018-05-27T19:12:24.723Z,13.77
2018-05-27T19:14:52.312Z,10.57
2018-05-27T19:17:20.030Z,13.13
2018-05-27T19:19:47.750Z,17.40
2018-05-27T19:22:15.344Z,13.07
2018-05-27T19:24:42.978Z,14.10
2018-05-27T19:27:10.841Z,10.13
2018-05-27T19:29:38.510Z,14.63
2018-05-27T19:32:06.169Z,13.17
2018-05-27T19:34:41.260Z,17.80
2018-05-27T19:37:08.832Z,10.00
2018-05-27T19:39:36.496Z,12.07
2018-05-27T19:42:04.178Z,15.33
2018-05-27T19:44:31.835Z,15.93
2018-05-27T19:46:59.471Z,17.50
2018-05-27T19:49:27.302Z,17.93
2018-05-27T19:51:54.992Z,16.43
2018-05-27T19:54:22.643Z,15.23
2018-05-27T19:56:50.343Z,13.37
2018-05-27T19:59:17.953Z,9.70
2018-05-27T20:01:45.637Z,12.33
2018-05-27T20:04:13.339Z,12.53
2018-05-27T20:06:40.966Z,14.47
2018-05-27T20:09:08.604Z,13.20
2018-05-27T20:11:36.458Z,14.43
2018-05-27T20:14:04.428Z,14.00
2018-05-27T20:16:38.239Z,15.60
2018-05-27T20:19:05.920Z,15.87
2018-05-27T20:21:34.569Z,14.33
2018-05-27T20:24:08.409Z,12.00
2018-05-27T20:26:36.025Z,12.13
2018-05-27T20:29:11.084Z,16.77
2018-05-27T20:31:38.691Z,13.23
2018-05-27T20:34:06.339Z,19.90
2018-05-27T20:36:34.035Z,15.27
2018-05-27T20:39:08.508Z,20.60
2018-05-27T20:41:39.400Z,16.57
2018-05-27T20:44:07.057Z,18.10
2018-05-27T20:46:34.704Z,11.77
2018-05-27T20:49:02.661Z,13.90
2018-05-27T20:51:30.346Z,17.20
2018-05-27T20:53:58.032Z,13.07
2018-05-27T20:56:25.784Z,13.37
2018-05-27T20:58:53.353Z,15.73
2018-05-27T21:01:21.030Z,13.40
2018-05-27T21:03:49.011Z,14.17
2018-05-27T21:06:16.796Z,13.73
2018-05-27T21:08:45.041Z,12.93
2018-05-27T21:11:13.159Z,16.40
2018-05-27T21:13:40.786Z,17.43
2018-05-27T21:16:08.420Z,17.40
2018-05-27T21:18:36.203Z,16.40
2018-05-27T21:21:04.007Z,11.90
2018-05-27T21:23:31.673Z,14.93
2018-05-27T21:25:59.449Z,16.37
2018-05-27T21:28:27.096Z,15.70
2018-05-27T21:30:54.734Z,12.60
2018-05-27T21:33:22.482Z,13.13
2018-05-27T21:35:50.083Z,11.97
2018-05-27T21:38:17.841Z,16.47
2018-05-27T21:40:45.531Z,15.23
2018-05-27T21:43:13.337Z,11.30
2018-05-27T21:45:40.971Z,13.43
2018-05-27T21:48:08.938Z,20.23
2018-05-27T21:50:36.788Z,19.63
2018-05-27T21:53:04.591Z,19.37
2018-05-27T21:55:32.271Z,17.13
2018-05-27T21:58:00.040Z,19.80
2018-05-27T22:00:27.816Z,16.07
2018-05-27T22:02:55.658Z,11.97
2018-05-27T22:05:23.463Z,14.43
2018-05-27T22:07:51.157Z,13.57
2018-05-27T22:10:18.964Z,14.67
2018-05-27T22:12:46.604Z,12.27
2018-05-27T22:15:14.265Z,12.30
2018-05-27T22:17:42.088Z,15.50
2018-05-27T22:20:09.811Z,15.83
2018-05-27T22:22:37.473Z,16.80
2018-05-27T22:25:11.422Z,12.57
2018-05-27T22:27:39.133Z,18.43
2018-05-27T22:30:08.833Z,11.90
2018-05-27T22:32:36.717Z,17.30
2018-05-27T22:35:04.418Z,15.73
2018-05-27T22:37:32.033Z,18.30
2018-05-27T22:39:59.752Z,13.23
2018-05-27T22:42:27.393Z,12.60
2018-05-27T22:44:55.539Z,12.43
2018-05-27T22:47:23.416Z,19.53
2018-05-27T22:49:51.119Z,15.03
2018-05-27T22:52:18.744Z,12.87
2018-05-27T22:54:46.448Z,14.60
2018-05-27T22:57:14.151Z,12.67
2018-05-27T22:59:41.752Z,14.03
2018-05-27T23:02:09.684Z,10.90
2018-05-27T23:04:37.297Z,12.90
2018-05-27T23:07:04.926Z,14.70
2018-05-27T23:09:32.687Z,17.57
2018-05-27T23:12:00.296Z,16.53
2018-05-27T23:14:36.017Z,16.23
2018-05-27T23:17:03.834Z,12.60
2018-05-27T23:19:31.505Z,13.47
2018-05-27T23:21:59.150Z,14.87
2018-05-27T23:24:26.756Z,16.40
2018-05-27T23:26:54.375Z,16.90
2018-05-27T23:29:22.608Z,13.90
2018-05-27T23:31:50.352Z,14.20
2018-05-27T23:34:18.065Z,13.37
2018-05-27T23:36:45.786Z,15.60
2018-05-27T23:39:15.544Z,19.57
2018-05-27T23:41:43.295Z,18.90
2018-05-27T23:44:11.202Z,14.20
2018-05-27T23:46:39.036Z,17.90
2018-05-27T23:49:07.653Z,21.13
2018-05-27T23:51:36.984Z,24.00
2018-05-27T23:54:08.269Z,21.77
2018-05-27T23:56:36.082Z,22.57
2018-05-27T23:59:05.739Z,20.50
